Easton, Washington
Current Conditions -  °F | °C
As of 4:53 AM on Thursday 18 Dec 2014 (Local Time) from KELN Reporting Station
Moderate Fog Moderate Fog  
Wind Chill: 36°   Ceiling: 500
Heat Index: 36°   Visibility: 0.25mi
Dew Point: 33°   Wind: 0mph
Humidity: 89%   Direction: NA
Pressure: 29.97"   Gusts: NA
Location:  47.24°N, 121.18°W
Report Text: KELN 181253Z AUTO 00000KT 1/4SM FG VV005 02/01 A2997 RMK AO2 SLP159 T00220006
Loading
Personal Weather Stations






























Interactive Weather Map New forecast layout! Learn more

10-Day Weather Forecast

Advertisements
Track Severe Weather on mobile